METAR AND TAF INFORMATION
METAR FOR KJFK
ADDS - METARS form results

(1432 UTC 20 April 2018)
Data provider http://aviationweather.gov/adds/metars/
 
METAR text: KJFK 201351Z 33021G26KT 10SM SCT044 SCT250 06/M04 A3016 RMK AO2 PK WND 32029/1254 SLP213 T00611044 $
Conditions at: KJFK (NYC/JFK ARPT , NY, US) observed 1351 UTC 20 April 2018
Temperature: 6.1°C (43°F)
Dewpoint: -4.4°C (24°F) [RH = 47%]
Pressure (altimeter): 30.16 inches Hg (1021.4 mb)
[Sea-level pressure: 1021.3 mb]
Winds: from the NNW (330 degrees) at 24 MPH (21 knots; 10.9 m/s)
gusting to 30 MPH (26 knots; 13.5 m/s)
Visibility: 10 or more miles (16+ km)
Ceiling: at least 12,000 feet AGL
Clouds: scattered clouds at 4400 feet AGL
scattered clouds at 25000 feet AGL
Weather:
SOME DATA ABOVE MAY BE INACCURATE!!!
"$" is an indication the sensor requires maintenance

Forecast for: KJFK (NYC/JFK ARPT , NY, US)
Text: KJFK 201314Z 2013/2118 32017G25KT P6SM SCT050
Forecast period: 1300 UTC 20 April 2018 to 0300 UTC 21 April 2018
Forecast type: FROM: standard forecast or significant change
Winds: from the NW (320 degrees) at 20 MPH (17 knots; 8.8 m/s)
gusting to 29 MPH (25 knots; 13.0 m/s)
Visibility: 6 or more miles (10+ km)
Clouds: scattered clouds at 5000 feet AGL
Weather: no significant weather forecast for this period
Forecast for: KJFK (NYC/JFK ARPT , NY, US)
Text: KJFK 201314Z 2013/2118 32017G25KT P6SM SCT050
Forecast period: 1300 UTC 20 April 2018 to 0300 UTC 21 April 2018
Forecast type: FROM: standard forecast or significant change
Winds: from the NW (320 degrees) at 20 MPH (17 knots; 8.8 m/s)
gusting to 29 MPH (25 knots; 13.0 m/s)
Visibility: 6 or more miles (10+ km)
Clouds: scattered clouds at 5000 feet AGL
Weather: no significant weather forecast for this period
Forecast for: KJFK (NYC/JFK ARPT , NY, US)
Text: KJFK 201314Z 2013/2118 32017G25KT P6SM SCT050
Forecast period: 0300 to 0700 UTC 21 April 2018
Forecast type: FROM: standard forecast or significant change
Winds: from the NNW (330 degrees) at 14 MPH (12 knots; 6.2 m/s)
Visibility: 6 or more miles (10+ km)
Clouds: clear skies
Weather: no significant weather forecast for this period
Forecast for: KJFK (NYC/JFK ARPT , NY, US)
Text: KJFK 201314Z 2013/2118 32017G25KT P6SM SCT050
Forecast period: 0300 to 0700 UTC 21 April 2018
Forecast type: FROM: standard forecast or significant change
Winds: from the NNW (330 degrees) at 14 MPH (12 knots; 6.2 m/s)
Visibility: 6 or more miles (10+ km)
Clouds: clear skies
Weather: no significant weather forecast for this period
Forecast for: KJFK (NYC/JFK ARPT , NY, US)
Text: KJFK 201314Z 2013/2118 32017G25KT P6SM SCT050
Forecast period: 0700 to 1800 UTC 21 April 2018
Forecast type: FROM: standard forecast or significant change
Winds: from the NW (320 degrees) at 12 MPH (10 knots; 5.2 m/s)
Visibility: 6 or more miles (10+ km)
Clouds: clear skies
Weather: no significant weather forecast for this period
Forecast for: KJFK (NYC/JFK ARPT , NY, US)
Text: KJFK 201314Z 2013/2118 32017G25KT P6SM SCT050
Forecast period: 0700 to 1800 UTC 21 April 2018
Forecast type: FROM: standard forecast or significant change
Winds: from the NW (320 degrees) at 12 MPH (10 knots; 5.2 m/s)
Visibility: 6 or more miles (10+ km)
Clouds: clear skies
Weather: no significant weather forecast for this period

 AIRPORT MAP

 RUNWAY INFORMATION
Runway 04L Runway length 11351 ft Runway width 150 ft
Runway elevation 12 ft Runway displaced threshold 0 ft Runway heading 31
Runway 22R Runway length 11351 ft Runway width 150 ft
Runway elevation 13 ft Runway displaced threshold 2696 ft Runway heading 211
Runway 04R Runway length 8400 ft Runway width 200 ft
Runway elevation 13 ft Runway displaced threshold 0 ft Runway heading 31
Runway 22L Runway length 8400 ft Runway width 200 ft
Runway elevation 13 ft Runway displaced threshold 0 ft Runway heading 211
Runway 13L Runway length 10000 ft Runway width 150 ft
Runway elevation 13 ft Runway displaced threshold 905 ft Runway heading 121
Runway 31R Runway length 10000 ft Runway width 150 ft
Runway elevation 13 ft Runway displaced threshold 1030 ft Runway heading 301
Runway 13R Runway length 14572 ft Runway width 150 ft
Runway elevation 13 ft Runway displaced threshold 2606 ft Runway heading 121
Runway 31L Runway length 14572 ft Runway width 150 ft
Runway elevation 13 ft Runway displaced threshold 3324 ft Runway heading 301

 AIRPORT FREQUENCIES
Type APP Name NEW YORK A Frequency 125.7 MHZ
Type APP Name NEW YORK A Frequency 127.4 MHZ
Type APP Name NEW YORK A Frequency 132.4 MHZ
Type ATIS Name ATIS Frequency 115.1 MHZ
Type CLD Name CLNC DEL Frequency 135.05 MHZ
Type DEP Name NEW YORK D Frequency 135.9 MHZ
Type GND Name GND Frequency 121.9 MHZ
Type RDO Name NEW YORK R Frequency 115.9 MHZ
Type TWR Name KENNEDY TW Frequency 119.1 MHZ
Type UNIC Name UNICOM Frequency 122.95 MHZ

 AIRPORT NEAR NAVIGATION AIDS
Type VOR-DME Name Canarsie Frequency 112300 KHZ
Type VOR-DME Name Kennedy Frequency 115900 KHZ